sensor_id;sensor_type;location;lat;lon;timestamp;pressure;altitude;pressure_sealevel;temperature;humidity
30919;BME280;76545;51.606;5.884;2024-02-26T00:02:25;99772.09;;;5.17;85.50
30919;BME280;76545;51.606;5.884;2024-02-26T00:04:51;99772.38;;;5.22;86.06
30919;BME280;76545;51.606;5.884;2024-02-26T00:07:17;99773.91;;;5.19;85.99
30919;BME280;76545;51.606;5.884;2024-02-26T00:09:43;99764.91;;;5.13;86.02
30919;BME280;76545;51.606;5.884;2024-02-26T00:12:09;99777.66;;;5.24;86.19
30919;BME280;76545;51.606;5.884;2024-02-26T00:14:35;99778.38;;;5.21;86.34
30919;BME280;76545;51.606;5.884;2024-02-26T00:17:01;99784.78;;;5.26;87.44
30919;BME280;76545;51.606;5.884;2024-02-26T00:19:27;99797.56;;;5.22;86.97
30919;BME280;76545;51.606;5.884;2024-02-26T00:21:52;99797.13;;;5.14;87.86
30919;BME280;76545;51.606;5.884;2024-02-26T00:24:21;99790.34;;;5.17;86.93
30919;BME280;76545;51.606;5.884;2024-02-26T00:26:47;99785.88;;;5.15;86.82
30919;BME280;76545;51.606;5.884;2024-02-26T00:29:19;99781.38;;;5.12;88.25
30919;BME280;76545;51.606;5.884;2024-02-26T00:31:45;99772.38;;;5.07;89.15
30919;BME280;76545;51.606;5.884;2024-02-26T00:34:11;99772.72;;;5.13;90.43
30919;BME280;76545;51.606;5.884;2024-02-26T00:36:37;99769.75;;;5.07;90.11
30919;BME280;76545;51.606;5.884;2024-02-26T00:39:03;99755.28;;;5.12;92.13
30919;BME280;76545;51.606;5.884;2024-02-26T00:41:29;99748.09;;;5.08;92.85
30919;BME280;76545;51.606;5.884;2024-02-26T00:43:55;99752.94;;;5.17;93.31
30919;BME280;76545;51.606;5.884;2024-02-26T00:46:21;99764.22;;;5.01;92.23
30919;BME280;76545;51.606;5.884;2024-02-26T00:48:47;99763.38;;;5.02;91.18
30919;BME280;76545;51.606;5.884;2024-02-26T00:51:13;99763.47;;;5.03;92.21
30919;BME280;76545;51.606;5.884;2024-02-26T00:53:39;99758.72;;;4.96;91.18
30919;BME280;76545;51.606;5.884;2024-02-26T00:56:05;99775.63;;;5.03;91.32
30919;BME280;76545;51.606;5.884;2024-02-26T00:58:32;99780.88;;;5.50;93.80
30919;BME280;76545;51.606;5.884;2024-02-26T01:00:58;99769.78;;;5.54;93.06
30919;BME280;76545;51.606;5.884;2024-02-26T01:03:25;99769.09;;;5.42;93.10
30919;BME280;76545;51.606;5.884;2024-02-26T01:05:51;99779.41;;;5.08;91.14
30919;BME280;76545;51.606;5.884;2024-02-26T01:08:17;99787.34;;;5.42;93.02
30919;BME280;76545;51.606;5.884;2024-02-26T01:10:43;99788.56;;;5.16;92.37
30919;BME280;76545;51.606;5.884;2024-02-26T01:13:09;99776.72;;;5.07;91.52
30919;BME280;76545;51.606;5.884;2024-02-26T01:15:35;99779.22;;;5.05;90.41
30919;BME280;76545;51.606;5.884;2024-02-26T01:18:01;99774.66;;;5.01;90.38
30919;BME280;76545;51.606;5.884;2024-02-26T01:20:26;99779.13;;;5.03;90.09
30919;BME280;76545;51.606;5.884;2024-02-26T01:22:52;99782.63;;;5.04;90.58
30919;BME280;76545;51.606;5.884;2024-02-26T01:25:18;99784.44;;;5.05;90.46
30919;BME280;76545;51.606;5.884;2024-02-26T01:27:44;99785.31;;;5.05;90.72
30919;BME280;76545;51.606;5.884;2024-02-26T01:30:10;99789.75;;;5.07;90.24
30919;BME280;76545;51.606;5.884;2024-02-26T01:32:36;99787.78;;;5.02;90.65
30919;BME280;76545;51.606;5.884;2024-02-26T01:35:03;99785.53;;;5.09;90.41
30919;BME280;76545;51.606;5.884;2024-02-26T01:37:29;99786.06;;;5.03;90.81
30919;BME280;76545;51.606;5.884;2024-02-26T01:39:58;99795.59;;;5.02;90.34
30919;BME280;76545;51.606;5.884;2024-02-26T01:42:23;99797.38;;;5.03;91.19
30919;BME280;76545;51.606;5.884;2024-02-26T01:44:49;99803.34;;;5.01;91.66
30919;BME280;76545;51.606;5.884;2024-02-26T01:47:15;99804.94;;;4.99;91.65
30919;BME280;76545;51.606;5.884;2024-02-26T01:49:41;99800.59;;;4.99;92.41
30919;BME280;76545;51.606;5.884;2024-02-26T01:52:07;99800.38;;;4.95;92.55
30919;BME280;76545;51.606;5.884;2024-02-26T01:54:35;99792.97;;;4.87;93.03
30919;BME280;76545;51.606;5.884;2024-02-26T01:57:04;99796.69;;;4.91;93.51
30919;BME280;76545;51.606;5.884;2024-02-26T01:59:30;99793.44;;;4.95;94.06
30919;BME280;76545;51.606;5.884;2024-02-26T02:01:58;99795.78;;;4.90;93.53
30919;BME280;76545;51.606;5.884;2024-02-26T02:04:25;99805.38;;;4.91;94.49
30919;BME280;76545;51.606;5.884;2024-02-26T02:06:51;99803.41;;;4.87;94.23
30919;BME280;76545;51.606;5.884;2024-02-26T02:09:18;99798.09;;;4.86;93.83
30919;BME280;76545;51.606;5.884;2024-02-26T02:11:44;99795.56;;;4.87;94.22
30919;BME280;76545;51.606;5.884;2024-02-26T02:14:10;99796.22;;;4.83;94.99
30919;BME280;76545;51.606;5.884;2024-02-26T02:16:36;99795.56;;;4.87;94.89
30919;BME280;76545;51.606;5.884;2024-02-26T02:19:02;99797.03;;;4.82;95.12
30919;BME280;76545;51.606;5.884;2024-02-26T02:21:28;99797.22;;;4.85;95.07
30919;BME280;76545;51.606;5.884;2024-02-26T02:23:54;99800.09;;;4.90;96.29
30919;BME280;76545;51.606;5.884;2024-02-26T02:26:20;99801.06;;;4.77;94.82
30919;BME280;76545;51.606;5.884;2024-02-26T02:28:47;99801.88;;;4.76;95.48
30919;BME280;76545;51.606;5.884;2024-02-26T02:31:14;99797.28;;;4.72;96.44
30919;BME280;76545;51.606;5.884;2024-02-26T02:33:40;99797.09;;;4.68;96.82
30919;BME280;76545;51.606;5.884;2024-02-26T02:36:07;99791.63;;;4.79;96.76
30919;BME280;76545;51.606;5.884;2024-02-26T02:38:37;99797.41;;;4.73;97.37
30919;BME280;76545;51.606;5.884;2024-02-26T02:41:03;99785.44;;;4.77;97.89
30919;BME280;76545;51.606;5.884;2024-02-26T02:43:29;99783.53;;;4.74;99.21
30919;BME280;76545;51.606;5.884;2024-02-26T02:45:55;99795.56;;;4.87;99.36
30919;BME280;76545;51.606;5.884;2024-02-26T02:48:21;99794.66;;;4.72;100.00
30919;BME280;76545;51.606;5.884;2024-02-26T02:50:47;99789.28;;;4.68;100.00
30919;BME280;76545;51.606;5.884;2024-02-26T02:53:13;99791.28;;;4.73;100.00
30919;BME280;76545;51.606;5.884;2024-02-26T02:55:39;99795.94;;;4.63;100.00
30919;BME280;76545;51.606;5.884;2024-02-26T02:58:04;99803.47;;;4.58;100.00
30919;BME280;76545;51.606;5.884;2024-02-26T03:00:30;99795.38;;;4.54;99.89
30919;BME280;76545;51.606;5.884;2024-02-26T03:02:56;99812.00;;;4.56;99.92
30919;BME280;76545;51.606;5.884;2024-02-26T03:05:22;99791.78;;;4.52;99.93
30919;BME280;76545;51.606;5.884;2024-02-26T03:07:48;99805.19;;;4.58;100.00
30919;BME280;76545;51.606;5.884;2024-02-26T03:10:14;99807.78;;;4.58;100.00
30919;BME280;76545;51.606;5.884;2024-02-26T03:12:40;99805.00;;;4.55;100.00
30919;BME280;76545;51.606;5.884;2024-02-26T03:15:06;99800.56;;;4.54;100.00
30919;BME280;76545;51.606;5.884;2024-02-26T03:17:32;99804.91;;;4.53;100.00
30919;BME280;76545;51.606;5.884;2024-02-26T03:19:58;99811.63;;;4.50;100.00
30919;BME280;76545;51.606;5.884;2024-02-26T03:22:24;99800.25;;;4.48;100.00
30919;BME280;76545;51.606;5.884;2024-02-26T03:24:50;99807.41;;;4.52;100.00
30919;BME280;76545;51.606;5.884;2024-02-26T03:27:16;99801.41;;;4.53;100.00
30919;BME280;76545;51.606;5.884;2024-02-26T03:29:42;99799.41;;;4.49;100.00
30919;BME280;76545;51.606;5.884;2024-02-26T03:32:08;99801.19;;;4.50;100.00
30919;BME280;76545;51.606;5.884;2024-02-26T03:34:34;99797.50;;;4.46;100.00
30919;BME280;76545;51.606;5.884;2024-02-26T03:37:00;99817.66;;;4.49;100.00
30919;BME280;76545;51.606;5.884;2024-02-26T03:39:26;99811.63;;;4.50;100.00
30919;BME280;76545;51.606;5.884;2024-02-26T03:41:52;99823.03;;;4.52;100.00
30919;BME280;76545;51.606;5.884;2024-02-26T03:44:18;99821.88;;;4.46;100.00
30919;BME280;76545;51.606;5.884;2024-02-26T03:46:44;99823.78;;;4.49;100.00
30919;BME280;76545;51.606;5.884;2024-02-26T03:49:10;99833.22;;;4.47;100.00
30919;BME280;76545;51.606;5.884;2024-02-26T03:51:36;99836.72;;;4.48;100.00
30919;BME280;76545;51.606;5.884;2024-02-26T03:54:03;99837.03;;;4.39;100.00
30919;BME280;76545;51.606;5.884;2024-02-26T03:56:29;99837.03;;;4.39;100.00
30919;BME280;76545;51.606;5.884;2024-02-26T03:58:55;99834.25;;;4.36;100.00
30919;BME280;76545;51.606;5.884;2024-02-26T04:01:21;99840.97;;;4.32;100.00
30919;BME280;76545;51.606;5.884;2024-02-26T04:03:48;99839.00;;;4.28;100.00
30919;BME280;76545;51.606;5.884;2024-02-26T04:06:14;99837.94;;;4.39;100.00
30919;BME280;76545;51.606;5.884;2024-02-26T04:08:41;99840.06;;;4.31;100.00
30919;BME280;76545;51.606;5.884;2024-02-26T04:11:07;99827.53;;;4.39;100.00
30919;BME280;76545;51.606;5.884;2024-02-26T04:13:33;99822.53;;;4.29;100.00
30919;BME280;76545;51.606;5.884;2024-02-26T04:16:00;99830.13;;;4.39;100.00
30919;BME280;76545;51.606;5.884;2024-02-26T04:18:27;99833.53;;;4.38;100.00
30919;BME280;76545;51.606;5.884;2024-02-26T04:20:53;99824.63;;;4.34;100.00
30919;BME280;76545;51.606;5.884;2024-02-26T04:23:20;99832.16;;;4.30;100.00
30919;BME280;76545;51.606;5.884;2024-02-26T04:25:46;99820.13;;;4.32;100.00
30919;BME280;76545;51.606;5.884;2024-02-26T04:28:12;99829.84;;;4.34;100.00
30919;BME280;76545;51.606;5.884;2024-02-26T04:30:39;99826.06;;;4.29;100.00
30919;BME280;76545;51.606;5.884;2024-02-26T04:33:05;99827.13;;;4.33;100.00
30919;BME280;76545;51.606;5.884;2024-02-26T04:35:31;99833.06;;;4.30;100.00
30919;BME280;76545;51.606;5.884;2024-02-26T04:37:57;99839.16;;;4.31;100.00
30919;BME280;76545;51.606;5.884;2024-02-26T04:40:23;99835.41;;;4.26;100.00
30919;BME280;76545;51.606;5.884;2024-02-26T04:42:49;99841.38;;;4.25;100.00
30919;BME280;76545;51.606;5.884;2024-02-26T04:45:15;99844.69;;;4.36;100.00
30919;BME280;76545;51.606;5.884;2024-02-26T04:47:41;99839.47;;;4.36;100.00
30919;BME280;76545;51.606;5.884;2024-02-26T04:50:07;99843.34;;;4.42;100.00
30919;BME280;76545;51.606;5.884;2024-02-26T04:52:34;99846.16;;;4.32;100.00
30919;BME280;76545;51.606;5.884;2024-02-26T04:54:59;99847.78;;;4.30;100.00
30919;BME280;76545;51.606;5.884;2024-02-26T04:57:26;99853.66;;;4.41;100.00
30919;BME280;76545;51.606;5.884;2024-02-26T04:59:51;99853.75;;;4.42;100.00
30919;BME280;76545;51.606;5.884;2024-02-26T05:02:17;99849.44;;;4.43;100.00
30919;BME280;76545;51.606;5.884;2024-02-26T05:04:43;99843.16;;;4.39;100.00
30919;BME280;76545;51.606;5.884;2024-02-26T05:07:09;99856.78;;;4.35;100.00
30919;BME280;76545;51.606;5.884;2024-02-26T05:09:35;99858.19;;;4.30;100.00
30919;BME280;76545;51.606;5.884;2024-02-26T05:12:02;99852.97;;;4.30;100.00
30919;BME280;76545;51.606;5.884;2024-02-26T05:14:29;99845.16;;;4.30;100.00
30919;BME280;76545;51.606;5.884;2024-02-26T05:16:55;99851.69;;;4.37;100.00
30919;BME280;76545;51.606;5.884;2024-02-26T05:19:21;99844.78;;;4.37;100.00
30919;BME280;76545;51.606;5.884;2024-02-26T05:21:47;99857.59;;;4.34;100.00
30919;BME280;76545;51.606;5.884;2024-02-26T05:24:15;99848.16;;;4.36;100.00
30919;BME280;76545;51.606;5.884;2024-02-26T05:26:43;99847.97;;;4.33;100.00
30919;BME280;76545;51.606;5.884;2024-02-26T05:29:09;99850.28;;;4.28;100.00
30919;BME280;76545;51.606;5.884;2024-02-26T05:31:35;99864.53;;;4.33;100.00
30919;BME280;76545;51.606;5.884;2024-02-26T05:34:01;99851.59;;;4.35;100.00
30919;BME280;76545;51.606;5.884;2024-02-26T05:36:27;99853.59;;;4.39;100.00
30919;BME280;76545;51.606;5.884;2024-02-26T05:38:59;99862.28;;;4.40;100.00
30919;BME280;76545;51.606;5.884;2024-02-26T05:41:26;99869.00;;;4.36;100.00
30919;BME280;76545;51.606;5.884;2024-02-26T05:43:53;99868.31;;;4.39;100.00
30919;BME280;76545;51.606;5.884;2024-02-26T05:46:19;99890.06;;;4.39;100.00
30919;BME280;76545;51.606;5.884;2024-02-26T05:48:47;99882.09;;;4.51;100.00
30919;BME280;76545;51.606;5.884;2024-02-26T05:51:13;99885.72;;;4.40;100.00
30919;BME280;76545;51.606;5.884;2024-02-26T05:53:40;99885.72;;;4.40;100.00
30919;BME280;76545;51.606;5.884;2024-02-26T05:56:07;99895.97;;;4.37;100.00
30919;BME280;76545;51.606;5.884;2024-02-26T05:58:33;99905.69;;;4.39;100.00
30919;BME280;76545;51.606;5.884;2024-02-26T06:00:59;99901.00;;;4.33;100.00
30919;BME280;76545;51.606;5.884;2024-02-26T06:03:26;99898.66;;;4.38;100.00
30919;BME280;76545;51.606;5.884;2024-02-26T06:05:52;99902.88;;;4.36;100.00
30919;BME280;76545;51.606;5.884;2024-02-26T06:08:18;99907.38;;;4.39;100.00
30919;BME280;76545;51.606;5.884;2024-02-26T06:10:44;99910.66;;;4.50;100.00
30919;BME280;76545;51.606;5.884;2024-02-26T06:13:11;99909.50;;;4.31;100.00
30919;BME280;76545;51.606;5.884;2024-02-26T06:15:37;99908.56;;;4.44;100.00
30919;BME280;76545;51.606;5.884;2024-02-26T06:18:02;99919.09;;;4.45;100.00
30919;BME280;76545;51.606;5.884;2024-02-26T06:20:28;99913.81;;;4.30;100.00
30919;BME280;76545;51.606;5.884;2024-02-26T06:22:54;99919.50;;;4.38;100.00
30919;BME280;76545;51.606;5.884;2024-02-26T06:25:20;99919.53;;;4.25;100.00
30919;BME280;76545;51.606;5.884;2024-02-26T06:27:46;99923.97;;;4.26;100.00
30919;BME280;76545;51.606;5.884;2024-02-26T06:30:12;99925.56;;;4.23;100.00
30919;BME280;76545;51.606;5.884;2024-02-26T06:32:38;99923.75;;;4.22;100.00
30919;BME280;76545;51.606;5.884;2024-02-26T06:35:04;99930.03;;;4.26;100.00
30919;BME280;76545;51.606;5.884;2024-02-26T06:37:35;99931.47;;;4.21;100.00
30919;BME280;76545;51.606;5.884;2024-02-26T06:40:02;99944.78;;;4.12;100.00
30919;BME280;76545;51.606;5.884;2024-02-26T06:42:35;99944.00;;;4.13;100.00
30919;BME280;76545;51.606;5.884;2024-02-26T06:45:01;99943.19;;;4.14;100.00
30919;BME280;76545;51.606;5.884;2024-02-26T06:47:28;99940.97;;;4.20;100.00
30919;BME280;76545;51.606;5.884;2024-02-26T06:49:54;99946.41;;;4.23;100.00
30919;BME280;76545;51.606;5.884;2024-02-26T06:52:23;99943.91;;;4.11;100.00
30919;BME280;76545;51.606;5.884;2024-02-26T06:54:50;99952.00;;;4.16;100.00
30919;BME280;76545;51.606;5.884;2024-02-26T06:57:21;99955.03;;;4.09;100.00
30919;BME280;76545;51.606;5.884;2024-02-26T06:59:47;99956.03;;;4.11;100.00
30919;BME280;76545;51.606;5.884;2024-02-26T07:02:14;99952.13;;;4.18;100.00
30919;BME280;76545;51.606;5.884;2024-02-26T07:04:40;99958.63;;;4.11;100.00
30919;BME280;76545;51.606;5.884;2024-02-26T07:07:07;99959.03;;;4.04;100.00
30919;BME280;76545;51.606;5.884;2024-02-26T07:09:33;99969.47;;;4.04;100.00
30919;BME280;76545;51.606;5.884;2024-02-26T07:11:59;99969.47;;;4.04;100.00
30919;BME280;76545;51.606;5.884;2024-02-26T07:14:25;99969.25;;;4.01;100.00
30919;BME280;76545;51.606;5.884;2024-02-26T07:16:51;99972.16;;;4.05;100.00
30919;BME280;76545;51.606;5.884;2024-02-26T07:19:17;99974.44;;;4.14;100.00
30919;BME280;76545;51.606;5.884;2024-02-26T07:21:43;99980.06;;;4.07;100.00
30919;BME280;76545;51.606;5.884;2024-02-26T07:24:09;99986.69;;;4.02;100.00
30919;BME280;76545;51.606;5.884;2024-02-26T07:26:35;99983.06;;;3.99;100.00
30919;BME280;76545;51.606;5.884;2024-02-26T07:29:02;99994.09;;;4.09;100.00
30919;BME280;76545;51.606;5.884;2024-02-26T07:31:28;99999.47;;;4.12;100.00
30919;BME280;76545;51.606;5.884;2024-02-26T07:33:54;99994.78;;;4.06;100.00
30919;BME280;76545;51.606;5.884;2024-02-26T07:36:20;99998.78;;;4.01;100.00
30919;BME280;76545;51.606;5.884;2024-02-26T07:38:46;100000.91;;;4.07;100.00
30919;BME280;76545;51.606;5.884;2024-02-26T07:41:12;100006.59;;;4.15;100.00
30919;BME280;76545;51.606;5.884;2024-02-26T07:43:38;100008.63;;;4.05;100.00
30919;BME280;76545;51.606;5.884;2024-02-26T07:46:04;100014.94;;;4.09;100.00
30919;BME280;76545;51.606;5.884;2024-02-26T07:48:30;100009.91;;;4.12;100.00
30919;BME280;76545;51.606;5.884;2024-02-26T07:50:56;100017.25;;;4.18;100.00
30919;BME280;76545;51.606;5.884;2024-02-26T07:53:24;100016.94;;;4.13;100.00
30919;BME280;76545;51.606;5.884;2024-02-26T07:55:50;100026.16;;;4.08;100.00
30919;BME280;76545;51.606;5.884;2024-02-26T07:58:16;100024.44;;;4.08;100.00
30919;BME280;76545;51.606;5.884;2024-02-26T08:00:42;100031.25;;;4.06;100.00
30919;BME280;76545;51.606;5.884;2024-02-26T08:03:09;100029.34;;;4.04;100.00
30919;BME280;76545;51.606;5.884;2024-02-26T08:05:35;100035.34;;;4.03;100.00
30919;BME280;76545;51.606;5.884;2024-02-26T08:08:02;100031.06;;;4.03;100.00
30919;BME280;76545;51.606;5.884;2024-02-26T08:10:28;100033.25;;;4.10;100.00
30919;BME280;76545;51.606;5.884;2024-02-26T08:12:54;100044.75;;;4.14;100.00
30919;BME280;76545;51.606;5.884;2024-02-26T08:15:20;100030.72;;;4.12;100.00
30919;BME280;76545;51.606;5.884;2024-02-26T08:17:46;100047.69;;;4.19;100.00
30919;BME280;76545;51.606;5.884;2024-02-26T08:20:13;100045.41;;;4.10;100.00
30919;BME280;76545;51.606;5.884;2024-02-26T08:22:39;100052.81;;;4.17;100.00
30919;BME280;76545;51.606;5.884;2024-02-26T08:25:06;100053.41;;;4.13;100.00
30919;BME280;76545;51.606;5.884;2024-02-26T08:27:35;100059.69;;;4.17;100.00
30919;BME280;76545;51.606;5.884;2024-02-26T08:30:00;100066.81;;;4.19;100.00
30919;BME280;76545;51.606;5.884;2024-02-26T08:32:27;100068.72;;;4.22;100.00
30919;BME280;76545;51.606;5.884;2024-02-26T08:34:53;100075.75;;;4.23;100.00
30919;BME280;76545;51.606;5.884;2024-02-26T08:37:19;100073.03;;;4.21;100.00
30919;BME280;76545;51.606;5.884;2024-02-26T08:39:45;100072.94;;;4.20;100.00
30919;BME280;76545;51.606;5.884;2024-02-26T08:42:11;100072.94;;;4.20;100.00
30919;BME280;76545;51.606;5.884;2024-02-26T08:44:37;100089.09;;;4.28;100.00
30919;BME280;76545;51.606;5.884;2024-02-26T08:47:03;100086.47;;;4.28;100.00
30919;BME280;76545;51.606;5.884;2024-02-26T08:49:29;100096.50;;;4.35;100.00
30919;BME280;76545;51.606;5.884;2024-02-26T08:51:55;100095.91;;;4.26;100.00
30919;BME280;76545;51.606;5.884;2024-02-26T08:54:21;100092.88;;;4.33;100.00
30919;BME280;76545;51.606;5.884;2024-02-26T08:56:47;100091.78;;;4.43;100.00
30919;BME280;76545;51.606;5.884;2024-02-26T08:59:13;100088.88;;;4.38;100.00
30919;BME280;76545;51.606;5.884;2024-02-26T09:01:42;100091.38;;;4.37;100.00
30919;BME280;76545;51.606;5.884;2024-02-26T09:04:07;100098.88;;;4.32;100.00
30919;BME280;76545;51.606;5.884;2024-02-26T09:06:33;100098.50;;;4.39;100.00
30919;BME280;76545;51.606;5.884;2024-02-26T09:08:59;100105.69;;;4.30;100.00
30919;BME280;76545;51.606;5.884;2024-02-26T09:11:25;100105.72;;;4.43;100.00
30919;BME280;76545;51.606;5.884;2024-02-26T09:13:51;100106.00;;;4.34;100.00
30919;BME280;76545;51.606;5.884;2024-02-26T09:16:17;100112.13;;;4.49;100.00
30919;BME280;76545;51.606;5.884;2024-02-26T09:18:43;100114.22;;;4.41;100.00
30919;BME280;76545;51.606;5.884;2024-02-26T09:21:09;100113.91;;;4.50;100.00
30919;BME280;76545;51.606;5.884;2024-02-26T09:23:35;100117.34;;;4.35;100.00
30919;BME280;76545;51.606;5.884;2024-02-26T09:26:02;100121.94;;;4.39;100.00
30919;BME280;76545;51.606;5.884;2024-02-26T09:28:28;100129.47;;;4.48;100.00
30919;BME280;76545;51.606;5.884;2024-02-26T09:30:57;100135.59;;;4.49;100.00
30919;BME280;76545;51.606;5.884;2024-02-26T09:33:23;100146.09;;;4.37;100.00
30919;BME280;76545;51.606;5.884;2024-02-26T09:35:49;100133.56;;;4.31;100.00
30919;BME280;76545;51.606;5.884;2024-02-26T09:38:15;100143.16;;;4.32;100.00
30919;BME280;76545;51.606;5.884;2024-02-26T09:40:41;100150.81;;;4.42;100.00
30919;BME280;76545;51.606;5.884;2024-02-26T09:43:10;100151.31;;;4.37;100.00
30919;BME280;76545;51.606;5.884;2024-02-26T09:45:40;100159.44;;;4.41;100.00
30919;BME280;76545;51.606;5.884;2024-02-26T09:48:08;100156.53;;;4.50;100.00
30919;BME280;76545;51.606;5.884;2024-02-26T09:50:36;100160.94;;;4.51;100.00
30919;BME280;76545;51.606;5.884;2024-02-26T09:53:04;100169.47;;;4.49;100.00
30919;BME280;76545;51.606;5.884;2024-02-26T09:55:31;100168.06;;;4.54;100.00
30919;BME280;76545;51.606;5.884;2024-02-26T09:57:57;100180.28;;;4.55;100.00
30919;BME280;76545;51.606;5.884;2024-02-26T10:00:24;100168.44;;;4.46;100.00
30919;BME280;76545;51.606;5.884;2024-02-26T10:02:51;100176.88;;;4.42;100.00
30919;BME280;76545;51.606;5.884;2024-02-26T10:05:18;100181.72;;;4.63;100.00
30919;BME280;76545;51.606;5.884;2024-02-26T10:07:48;100189.03;;;4.55;100.00
30919;BME280;76545;51.606;5.884;2024-02-26T10:10:14;100189.41;;;4.62;100.00
30919;BME280;76545;51.606;5.884;2024-02-26T10:12:40;100196.34;;;4.61;100.00
30919;BME280;76545;51.606;5.884;2024-02-26T10:15:06;100206.13;;;4.52;100.00
30919;BME280;76545;51.606;5.884;2024-02-26T10:17:32;100210.75;;;4.56;100.00
30919;BME280;76545;51.606;5.884;2024-02-26T10:20:15;100210.25;;;4.62;100.00
30919;BME280;76545;51.606;5.884;2024-02-26T10:22:44;100207.47;;;4.58;100.00
30919;BME280;76545;51.606;5.884;2024-02-26T10:25:10;100212.09;;;4.63;100.00
30919;BME280;76545;51.606;5.884;2024-02-26T10:27:36;100231.03;;;4.60;100.00
30919;BME280;76545;51.606;5.884;2024-02-26T10:30:03;100234.03;;;4.53;100.00
30919;BME280;76545;51.606;5.884;2024-02-26T10:32:30;100224.09;;;4.61;100.00
30919;BME280;76545;51.606;5.884;2024-02-26T10:34:57;100231.00;;;4.46;100.00
30919;BME280;76545;51.606;5.884;2024-02-26T10:37:23;100245.38;;;4.67;100.00
30919;BME280;76545;51.606;5.884;2024-02-26T10:39:50;100246.06;;;4.64;100.00
30919;BME280;76545;51.606;5.884;2024-02-26T10:42:16;100241.97;;;4.68;100.00
30919;BME280;76545;51.606;5.884;2024-02-26T10:44:45;100256.72;;;4.67;100.00
30919;BME280;76545;51.606;5.884;2024-02-26T10:47:12;100249.06;;;4.57;100.00
30919;BME280;76545;51.606;5.884;2024-02-26T10:49:38;100255.59;;;4.64;100.00
30919;BME280;76545;51.606;5.884;2024-02-26T10:52:11;100268.31;;;4.59;100.00
30919;BME280;76545;51.606;5.884;2024-02-26T10:54:39;100272.72;;;4.60;100.00
30919;BME280;76545;51.606;5.884;2024-02-26T10:57:08;100277.66;;;4.55;100.00
30919;BME280;76545;51.606;5.884;2024-02-26T10:59:36;100278.75;;;4.59;100.00
30919;BME280;76545;51.606;5.884;2024-02-26T11:02:02;100267.84;;;4.65;100.00
30919;BME280;76545;51.606;5.884;2024-02-26T11:04:29;100269.53;;;4.64;100.00
30919;BME280;76545;51.606;5.884;2024-02-26T11:06:57;100268.75;;;4.65;100.00
30919;BME280;76545;51.606;5.884;2024-02-26T11:09:24;100277.69;;;4.82;100.00
30919;BME280;76545;51.606;5.884;2024-02-26T11:11:51;100283.09;;;4.86;100.00
30919;BME280;76545;51.606;5.884;2024-02-26T11:14:21;100277.69;;;4.82;100.00
30919;BME280;76545;51.606;5.884;2024-02-26T11:16:47;100281.91;;;4.80;100.00
30919;BME280;76545;51.606;5.884;2024-02-26T11:19:15;100284.31;;;4.77;100.00
30919;BME280;76545;51.606;5.884;2024-02-26T11:21:41;100283.59;;;4.80;100.00
30919;BME280;76545;51.606;5.884;2024-02-26T11:24:12;100292.91;;;4.76;100.00
30919;BME280;76545;51.606;5.884;2024-02-26T11:26:43;100296.34;;;4.75;100.00
30919;BME280;76545;51.606;5.884;2024-02-26T11:29:14;100290.31;;;4.90;100.00
30919;BME280;76545;51.606;5.884;2024-02-26T11:31:41;100291.44;;;4.93;100.00
30919;BME280;76545;51.606;5.884;2024-02-26T11:34:09;100287.63;;;4.88;100.00
30919;BME280;76545;51.606;5.884;2024-02-26T11:36:36;100297.88;;;4.85;100.00
30919;BME280;76545;51.606;5.884;2024-02-26T11:39:04;100305.47;;;4.82;100.00
30919;BME280;76545;51.606;5.884;2024-02-26T11:41:30;100296.13;;;4.86;100.00
30919;BME280;76545;51.606;5.884;2024-02-26T11:44:03;100308.97;;;4.82;100.00
30919;BME280;76545;51.606;5.884;2024-02-26T11:46:41;100288.31;;;4.86;100.00
30919;BME280;76545;51.606;5.884;2024-02-26T11:49:30;100308.16;;;4.84;100.00
30919;BME280;76545;51.606;5.884;2024-02-26T11:51:57;100309.06;;;4.84;100.00
30919;BME280;76545;51.606;5.884;2024-02-26T11:57:37;100302.09;;;4.97;100.00
30919;BME280;76545;51.606;5.884;2024-02-26T12:02:46;100303.38;;;5.03;100.00
30919;BME280;76545;51.606;5.884;2024-02-26T12:05:17;100316.00;;;4.97;100.00
30919;BME280;76545;51.606;5.884;2024-02-26T12:07:45;100314.53;;;5.01;100.00
30919;BME280;76545;51.606;5.884;2024-02-26T12:10:30;100308.81;;;4.93;100.00
30919;BME280;76545;51.606;5.884;2024-02-26T12:15:42;100317.75;;;4.97;100.00
30919;BME280;76545;51.606;5.884;2024-02-26T12:18:15;100324.25;;;5.03;100.00
30919;BME280;76545;51.606;5.884;2024-02-26T12:20:41;100331.28;;;4.91;100.00
30919;BME280;76545;51.606;5.884;2024-02-26T12:23:15;100333.38;;;4.83;100.00
30919;BME280;76545;51.606;5.884;2024-02-26T12:25:43;100338.19;;;4.90;100.00
30919;BME280;76545;51.606;5.884;2024-02-26T12:28:10;100351.31;;;4.92;100.00
30919;BME280;76545;51.606;5.884;2024-02-26T12:30:36;100341.38;;;4.86;100.00
30919;BME280;76545;51.606;5.884;2024-02-26T12:33:02;100349.31;;;5.01;100.00
30919;BME280;76545;51.606;5.884;2024-02-26T12:35:29;100349.13;;;4.98;100.00
30919;BME280;76545;51.606;5.884;2024-02-26T12:37:58;100349.63;;;4.92;100.00
30919;BME280;76545;51.606;5.884;2024-02-26T12:40:24;100356.88;;;5.10;100.00
30919;BME280;76545;51.606;5.884;2024-02-26T12:42:50;100359.16;;;5.05;100.00
30919;BME280;76545;51.606;5.884;2024-02-26T12:45:16;100363.28;;;5.02;100.00
30919;BME280;76545;51.606;5.884;2024-02-26T12:47:43;100364.84;;;4.86;100.00
30919;BME280;76545;51.606;5.884;2024-02-26T12:50:10;100375.13;;;4.97;100.00
30919;BME280;76545;51.606;5.884;2024-02-26T12:52:41;100380.34;;;4.97;100.00
30919;BME280;76545;51.606;5.884;2024-02-26T12:55:08;100380.09;;;4.93;100.00
30919;BME280;76545;51.606;5.884;2024-02-26T12:57:37;100379.09;;;4.91;100.00
30919;BME280;76545;51.606;5.884;2024-02-26T13:00:08;100382.63;;;4.92;100.00
30919;BME280;76545;51.606;5.884;2024-02-26T13:02:37;100382.97;;;5.10;100.00
30919;BME280;76545;51.606;5.884;2024-02-26T13:05:05;100397.50;;;5.07;100.00